Terminal Aerodrome Forecast
Issued by NWS Buffalo, NY

Home | Current Version | Previous Version | Text Only | Print | Product List | Glossary On
Versions: 1 2 3 4 5 6 7 8 9 10 11 12 13 14 15 16 17 18 19
000
FTUS41 KBUF 252334
TAFROC
TAF
KROC 252334Z 2600/2624 23008KT P6SM BKN080
     FM260015 22008KT P6SM -SHRA BKN040
     FM260130 22012KT P6SM BKN080
     FM260300 22012KT P6SM SCT100 WS020/24045KT
     FM260800 23008KT P6SM BKN100
     FM261600 23010KT P6SM VCSH BKN060=

USA.gov is the U.S. government's official web portal to all federal, state and local government web resources and services.